Newcastle University, Australia

10:40 PM AEDT on March 30, 2017 (GMT +1100)
Waratah West | | Change Station

Elev 131 ft 32.90 °S, 151.72 °E | Updated 9 seconds ago

Rain
Rain
61.9 °F
Feels Like 61.9 °F
N
5.8
Wind Variable Wind from WSW
Gusts 7.4 mph

Today
High -- | Low -- °F
--% Chance of Precip.
Yesterday
High -- | Low -- °F
Precip. -- in
Pressure 29.83 in
Visibility 2.8 miles
Clouds Mostly Cloudy 900 ft
Overcast 1300 ft
Dew Point 60 °F
Humidity 95%
Rainfall 1.76 in
Snow Depth Not available.
7:03 AM 6:51 PM
Waxing Crescent, 8% visible
SPECI YWLM 301130Z AUTO 22016KT 4500 +RA BKN009 OVC013 17/17 Q1010
Pressure 29.83 in
Visibility 2.8 miles
Clouds Mostly Cloudy 900 ft
Overcast 1300 ft
Dew Point 60 °F
Humidity 95%
Rainfall 1.76 in
Snow Depth Not available.
7:03 AM 6:51 PM
Waxing Crescent, 8% visible
SPECI YWLM 301130Z AUTO 22016KT 4500 +RA BKN009 OVC013 17/17 Q1010

Get Severe Weather Alerts

Thanks for signing up!

Be on the lookout for a verification email in your inbox.

You'll start receiving the daily forecast at 8 AM.

×

10-Day Weather Forecast

×

Almanac

Astronomy

Mar. 30, 2017 Rise Set
Actual Time
Civil Twilight
Nautical Twilight
Astronomical Twilight
Moon
Length of Visible Light
Length of Day
Tomorrow will be .
, % of the Moon is Illuminated

Today's Extremes

Country Highs Country Lows

Community

WunderPhotos

Upload Photos

1,962,540 photos uploaded!

WunderBlog® & News

Nearby

Air Quality

  Air Quality AQ Index Pollutant
Not available.

Snow Depth

Station Depth Elevation

Earthquake Activity

City Distance Mag. Time & Date
Minimum magnitude displayed is 2.5.

Earthquake Activity

City Distance Mag. Time & Date
Minimum magnitude displayed is 2.5.

Coastal Water Temperatures

Place Temperature

Stations

Nearby Weather Stations

Station Location Temp. Windchill Dew Point Humidity Wind Precip. Elev Updated Type